createdAt,value
2022-12-31T00:01:32.464Z,100221.50
2022-12-31T00:03:57.397Z,100229.00
2022-12-31T00:06:25.288Z,100222.97
2022-12-31T00:08:51.403Z,100239.84
2022-12-31T00:11:15.484Z,100237.19
2022-12-31T00:13:39.554Z,100240.78
2022-12-31T00:16:12.222Z,100234.72
2022-12-31T00:18:36.200Z,100256.09
2022-12-31T00:21:00.014Z,100252.13
2022-12-31T00:23:23.597Z,100257.75
2022-12-31T00:25:48.513Z,100263.75
2022-12-31T00:28:12.091Z,100258.09
2022-12-31T00:30:35.975Z,100263.91
2022-12-31T00:32:59.583Z,100257.41
2022-12-31T00:35:23.102Z,100256.22
2022-12-31T00:37:46.649Z,100255.50
2022-12-31T00:40:12.420Z,100251.22
2022-12-31T00:42:37.385Z,100244.94
2022-12-31T00:45:00.915Z,100253.09
2022-12-31T00:47:26.472Z,100248.91
2022-12-31T00:49:49.971Z,100258.38
2022-12-31T00:52:15.923Z,100262.38
2022-12-31T00:54:39.630Z,100258.28
2022-12-31T00:57:03.259Z,100271.38
2022-12-31T00:59:28.225Z,100269.75
2022-12-31T01:01:51.934Z,100288.47
2022-12-31T01:04:20.391Z,100292.38
2022-12-31T01:06:44.843Z,100293.81
2022-12-31T01:09:09.664Z,100301.50
2022-12-31T01:11:33.525Z,100300.53
2022-12-31T01:13:59.509Z,100301.91
2022-12-31T01:16:28.194Z,100301.31
2022-12-31T01:18:52.094Z,100304.59
2022-12-31T01:21:16.319Z,100304.72
2022-12-31T01:23:40.281Z,100306.47
2022-12-31T01:26:06.067Z,100308.19
2022-12-31T01:28:29.726Z,100304.50
2022-12-31T01:30:53.332Z,100302.13
2022-12-31T01:33:18.310Z,100298.00
2022-12-31T01:35:41.865Z,100325.25
2022-12-31T01:38:05.947Z,100323.44
2022-12-31T01:40:29.679Z,100325.94
2022-12-31T01:42:56.586Z,100329.44
2022-12-31T01:45:20.409Z,100327.59
2022-12-31T01:47:48.354Z,100332.66
2022-12-31T01:50:17.973Z,100335.38
2022-12-31T01:52:46.519Z,100333.34
2022-12-31T01:55:16.525Z,100328.34
2022-12-31T01:57:40.331Z,100328.31
2022-12-31T02:00:06.339Z,100329.44
2022-12-31T02:02:30.143Z,100330.63
2022-12-31T02:04:57.182Z,100335.78
2022-12-31T02:07:22.271Z,100343.59
2022-12-31T02:09:45.929Z,100336.09
2022-12-31T02:12:11.014Z,100338.69
2022-12-31T02:14:38.836Z,100334.38
2022-12-31T02:17:10.723Z,100340.91
2022-12-31T02:20:21.334Z,100338.22
2022-12-31T02:23:27.003Z,100328.28
2022-12-31T02:26:25.985Z,100330.72
2022-12-31T02:29:40.399Z,100338.63
2022-12-31T02:32:13.229Z,100328.75
2022-12-31T02:34:42.880Z,100336.94
2022-12-31T02:37:12.272Z,100324.78
2022-12-31T02:39:36.724Z,100319.72
2022-12-31T02:42:02.172Z,100324.56
2022-12-31T02:44:28.625Z,100322.41
2022-12-31T02:47:14.476Z,100323.53
2022-12-31T02:49:50.788Z,100328.19
2022-12-31T02:52:23.043Z,100334.88
2022-12-31T02:54:55.176Z,100324.69
2022-12-31T02:57:27.974Z,100320.03
2022-12-31T03:00:13.382Z,100325.41
2022-12-31T03:02:40.493Z,100320.31
2022-12-31T03:05:05.499Z,100314.91
2022-12-31T03:07:31.725Z,100307.13
2022-12-31T03:09:55.855Z,100309.25
2022-12-31T03:12:40.732Z,100318.88
2022-12-31T03:15:07.265Z,100306.56
2022-12-31T03:17:30.924Z,100313.22
2022-12-31T03:20:14.223Z,100314.34
2022-12-31T03:22:43.181Z,100313.94
2022-12-31T03:25:28.536Z,100324.53
2022-12-31T03:27:53.420Z,100301.63
2022-12-31T03:30:20.039Z,100306.56
2022-12-31T03:32:44.568Z,100314.22
2022-12-31T03:35:12.103Z,100311.25
2022-12-31T03:37:35.802Z,100309.78
2022-12-31T03:39:59.296Z,100308.66
2022-12-31T03:42:22.885Z,100314.75
2022-12-31T03:44:46.409Z,100318.63
2022-12-31T03:47:09.992Z,100304.56
2022-12-31T03:49:33.505Z,100306.41
2022-12-31T03:51:58.489Z,100297.34
2022-12-31T03:54:22.138Z,100289.25
2022-12-31T03:56:47.163Z,100284.28
2022-12-31T03:59:12.987Z,100273.94
2022-12-31T04:01:36.648Z,100281.69
2022-12-31T04:04:00.298Z,100281.13
2022-12-31T04:06:23.937Z,100281.84
2022-12-31T04:08:48.848Z,100275.44
2022-12-31T04:11:17.358Z,100294.22
2022-12-31T04:13:44.186Z,100292.19
2022-12-31T04:16:07.748Z,100292.75
2022-12-31T04:18:31.344Z,100295.00
2022-12-31T04:20:54.906Z,100289.56
2022-12-31T04:23:18.946Z,100285.13
2022-12-31T04:25:43.977Z,100287.50
2022-12-31T04:28:07.836Z,100298.31
2022-12-31T04:30:31.406Z,100304.66
2022-12-31T04:32:55.029Z,100304.13
2022-12-31T04:35:19.332Z,100298.22
2022-12-31T04:37:42.960Z,100293.28
2022-12-31T04:40:08.000Z,100283.47
2022-12-31T04:42:33.003Z,100285.34
2022-12-31T04:44:56.500Z,100273.25
2022-12-31T04:47:23.616Z,100272.66
2022-12-31T04:49:47.556Z,100274.06
2022-12-31T04:52:11.128Z,100263.03
2022-12-31T04:54:34.673Z,100248.75
2022-12-31T04:56:58.276Z,100254.53
2022-12-31T04:59:23.220Z,100250.28
2022-12-31T05:01:46.900Z,100239.72
2022-12-31T05:04:10.516Z,100240.97
2022-12-31T05:06:34.223Z,100238.53
2022-12-31T05:08:57.820Z,100233.31
2022-12-31T05:11:21.715Z,100236.56
2022-12-31T05:13:45.324Z,100237.78
2022-12-31T05:16:11.300Z,100253.25
2022-12-31T05:18:37.275Z,100259.72
2022-12-31T05:21:01.013Z,100257.34
2022-12-31T05:23:25.271Z,100264.28
2022-12-31T05:25:50.063Z,100265.56
2022-12-31T05:28:14.458Z,100256.03
2022-12-31T05:30:38.745Z,100254.34
2022-12-31T05:33:03.793Z,100244.63
2022-12-31T05:35:27.831Z,100254.66
2022-12-31T05:37:51.468Z,100259.25
2022-12-31T05:40:15.090Z,100250.84
2022-12-31T05:42:38.663Z,100254.22
2022-12-31T05:45:02.234Z,100246.03
2022-12-31T05:47:25.928Z,100245.97
2022-12-31T05:49:50.956Z,100236.25
2022-12-31T05:52:14.520Z,100231.50
2022-12-31T05:54:38.421Z,100236.38
2022-12-31T05:57:01.946Z,100228.94
2022-12-31T05:59:25.585Z,100215.94
2022-12-31T06:01:49.196Z,100201.69
2022-12-31T06:04:12.812Z,100197.28
2022-12-31T06:06:37.749Z,100193.91
2022-12-31T06:09:01.333Z,100194.00
2022-12-31T06:11:25.033Z,100185.31
2022-12-31T06:13:48.625Z,100182.03
2022-12-31T06:16:12.981Z,100175.81
2022-12-31T06:18:36.648Z,100187.41
2022-12-31T06:21:00.379Z,100190.31
2022-12-31T06:23:25.355Z,100174.75
2022-12-31T06:25:48.890Z,100165.72
2022-12-31T06:28:19.818Z,100165.00
2022-12-31T06:30:44.200Z,100186.88
2022-12-31T06:33:07.816Z,100175.88
2022-12-31T06:35:31.410Z,100167.97
2022-12-31T06:37:54.984Z,100169.88
2022-12-31T06:40:19.948Z,100177.25
2022-12-31T06:42:43.460Z,100172.72
2022-12-31T06:45:08.727Z,100178.69
2022-12-31T06:47:32.233Z,100176.69
2022-12-31T06:49:55.903Z,100168.16
2022-12-31T06:52:19.415Z,100170.47
2022-12-31T06:54:43.764Z,100162.63
2022-12-31T06:57:11.033Z,100160.22
2022-12-31T06:59:35.587Z,100158.88
2022-12-31T07:02:23.015Z,100153.78
2022-12-31T07:05:23.079Z,100166.00
2022-12-31T07:08:00.799Z,100151.16
2022-12-31T07:10:36.199Z,100157.63
2022-12-31T07:13:24.661Z,100144.31
2022-12-31T07:16:07.064Z,100148.91
2022-12-31T07:18:38.338Z,100149.72
2022-12-31T07:21:02.770Z,100145.94
2022-12-31T07:23:27.089Z,100149.25
2022-12-31T07:26:00.796Z,100141.84
2022-12-31T07:28:42.787Z,100150.97
2022-12-31T07:31:14.650Z,100150.84
2022-12-31T07:33:53.147Z,100153.09
2022-12-31T07:36:38.336Z,100152.69
2022-12-31T07:39:09.868Z,100146.41
2022-12-31T07:41:50.607Z,100145.94
2022-12-31T07:44:32.941Z,100148.66
2022-12-31T07:46:59.314Z,100151.59
2022-12-31T07:49:24.345Z,100160.59
2022-12-31T07:51:48.789Z,100170.00
2022-12-31T07:54:14.364Z,100169.22
2022-12-31T07:56:38.313Z,100178.69
2022-12-31T07:59:24.036Z,100193.94
2022-12-31T08:01:55.045Z,100179.91
2022-12-31T08:04:29.168Z,100179.22
2022-12-31T08:07:02.381Z,100177.47
2022-12-31T08:09:39.708Z,100179.25
2022-12-31T08:12:04.392Z,100202.06
2022-12-31T08:14:31.397Z,100198.72
2022-12-31T08:16:56.283Z,100192.00
2022-12-31T08:19:26.702Z,100184.56
2022-12-31T08:22:10.176Z,100177.47
2022-12-31T08:24:44.120Z,100185.63
2022-12-31T08:27:17.114Z,100186.13
2022-12-31T08:29:51.152Z,100186.34
2022-12-31T08:32:22.959Z,100188.78
2022-12-31T08:34:57.562Z,100191.59
2022-12-31T08:37:36.706Z,100199.22
2022-12-31T08:40:17.439Z,100201.94
2022-12-31T08:42:56.654Z,100190.81
2022-12-31T08:45:29.556Z,100193.00
2022-12-31T08:48:02.774Z,100196.28
2022-12-31T08:50:27.139Z,100197.91
2022-12-31T08:52:51.476Z,100197.00
2022-12-31T08:55:18.843Z,100196.72
2022-12-31T08:57:53.981Z,100200.19
2022-12-31T09:00:22.222Z,100188.91
2022-12-31T09:03:08.600Z,100189.91
2022-12-31T09:05:53.099Z,100194.13
2022-12-31T09:08:30.063Z,100186.03
2022-12-31T09:11:00.579Z,100188.91
2022-12-31T09:13:33.492Z,100195.47
2022-12-31T09:16:07.920Z,100197.03
2022-12-31T09:18:33.415Z,100199.06
2022-12-31T09:20:57.464Z,100201.44
2022-12-31T09:23:21.572Z,100190.78
2022-12-31T09:25:57.608Z,100196.06
2022-12-31T09:28:39.690Z,100203.50
2022-12-31T09:31:11.488Z,100203.13
2022-12-31T09:33:43.888Z,100211.75
2022-12-31T09:36:10.413Z,100212.25
2022-12-31T09:38:43.045Z,100221.41
2022-12-31T09:41:42.973Z,100224.97
2022-12-31T09:45:06.945Z,100224.78
2022-12-31T09:48:18.633Z,100236.63
2022-12-31T09:50:58.626Z,100234.91
2022-12-31T09:53:52.754Z,100228.69
2022-12-31T09:56:24.737Z,100246.41
2022-12-31T09:59:00.167Z,100229.38
2022-12-31T10:01:36.814Z,100238.50
2022-12-31T10:04:23.206Z,100239.84
2022-12-31T10:06:57.237Z,100244.41
2022-12-31T10:10:00.173Z,100248.81
2022-12-31T10:13:07.419Z,100251.03
2022-12-31T10:16:17.576Z,100258.59
2022-12-31T10:19:39.664Z,100271.31
2022-12-31T10:22:19.775Z,100289.03
2022-12-31T10:25:19.338Z,100277.56
2022-12-31T10:27:56.547Z,100286.34
2022-12-31T10:30:25.085Z,100282.63
2022-12-31T10:33:09.128Z,100291.09
2022-12-31T10:35:44.239Z,100290.72
2022-12-31T10:38:32.035Z,100291.97
2022-12-31T10:41:54.595Z,100283.09
2022-12-31T10:45:14.274Z,100283.97
2022-12-31T10:48:40.307Z,100291.06
2022-12-31T10:52:04.173Z,100287.88
2022-12-31T10:55:02.836Z,100303.59
2022-12-31T10:58:04.738Z,100305.66
2022-12-31T11:00:32.260Z,100304.94
2022-12-31T11:03:47.750Z,100309.34
2022-12-31T11:07:08.242Z,100319.84
2022-12-31T11:10:23.816Z,100323.72
2022-12-31T11:13:26.534Z,100328.13
2022-12-31T11:16:19.905Z,100324.88
2022-12-31T11:18:57.674Z,100323.72
2022-12-31T11:21:41.768Z,100316.44
2022-12-31T11:24:19.658Z,100310.69
2022-12-31T11:27:02.459Z,100305.91
2022-12-31T11:29:40.490Z,100297.69
2022-12-31T11:32:27.669Z,100285.28
2022-12-31T11:35:33.500Z,100279.38
2022-12-31T11:38:09.924Z,100262.84
2022-12-31T11:40:43.189Z,100268.38
2022-12-31T11:43:22.876Z,100268.06
2022-12-31T11:46:18.053Z,100266.22
2022-12-31T11:48:55.312Z,100263.53
2022-12-31T11:51:44.270Z,100271.31
2022-12-31T11:54:51.299Z,100265.06
2022-12-31T11:57:26.123Z,100264.34
2022-12-31T11:59:52.886Z,100259.78
2022-12-31T12:02:28.197Z,100250.16
2022-12-31T12:04:54.108Z,100253.22
2022-12-31T12:07:19.008Z,100254.56
2022-12-31T12:09:45.601Z,100254.72
2022-12-31T12:12:09.572Z,100253.03
2022-12-31T12:14:36.636Z,100243.41
2022-12-31T12:17:05.129Z,100246.25
2022-12-31T12:19:33.953Z,100245.59
2022-12-31T12:21:57.744Z,100241.34
2022-12-31T12:24:24.257Z,100240.34
2022-12-31T12:26:50.580Z,100241.72
2022-12-31T12:29:20.443Z,100241.34
2022-12-31T12:31:44.524Z,100242.03
2022-12-31T12:34:24.974Z,100244.06
2022-12-31T12:36:50.153Z,100240.16
2022-12-31T12:39:23.358Z,100227.13
2022-12-31T12:41:46.927Z,100221.88
2022-12-31T12:44:16.712Z,100223.19
2022-12-31T12:46:48.549Z,100213.63
2022-12-31T12:49:24.605Z,100226.31
2022-12-31T12:52:17.009Z,100213.09
2022-12-31T12:55:00.193Z,100209.03
2022-12-31T12:57:30.890Z,100217.09
2022-12-31T13:00:09.923Z,100219.66
2022-12-31T13:03:22.030Z,100214.47
2022-12-31T13:06:03.946Z,100211.91
2022-12-31T13:08:50.763Z,100209.09
2022-12-31T13:11:31.866Z,100216.66
2022-12-31T13:14:07.529Z,100222.31
2022-12-31T13:16:41.148Z,100217.91
2022-12-31T13:19:14.207Z,100212.13
2022-12-31T13:21:48.733Z,100220.41
2022-12-31T13:24:29.398Z,100225.19
2022-12-31T13:27:00.707Z,100234.81
2022-12-31T13:29:29.090Z,100231.47
2022-12-31T13:31:53.913Z,100237.72
2022-12-31T13:34:22.218Z,100239.84
2022-12-31T13:36:50.285Z,100226.97
2022-12-31T13:39:18.238Z,100239.16
2022-12-31T13:41:48.057Z,100243.25
2022-12-31T13:44:18.128Z,100254.72
2022-12-31T13:46:47.011Z,100251.13
2022-12-31T13:49:20.600Z,100271.34
2022-12-31T13:51:49.268Z,100274.13
2022-12-31T13:54:28.489Z,100286.56
2022-12-31T13:56:53.243Z,100306.22
2022-12-31T13:59:22.129Z,100315.63
2022-12-31T14:01:54.243Z,100318.84
2022-12-31T14:04:23.415Z,100337.41
2022-12-31T14:06:56.144Z,100338.09
2022-12-31T14:09:24.893Z,100351.91
2022-12-31T14:12:21.809Z,100377.00
2022-12-31T14:14:54.751Z,100378.75
2022-12-31T14:17:26.967Z,100383.22
2022-12-31T14:20:03.962Z,100381.53
2022-12-31T14:22:37.229Z,100391.16
2022-12-31T14:25:03.138Z,100387.34
2022-12-31T14:27:40.770Z,100400.50
2022-12-31T14:30:08.371Z,100386.09
2022-12-31T14:33:11.852Z,100371.16
2022-12-31T14:35:56.844Z,100374.66
2022-12-31T14:38:36.568Z,100391.31
2022-12-31T14:41:13.314Z,100401.06
2022-12-31T14:43:49.885Z,100421.06
2022-12-31T14:46:26.587Z,100407.66
2022-12-31T14:49:01.816Z,100409.63
2022-12-31T14:51:29.914Z,100406.44
2022-12-31T14:53:56.976Z,100402.38
2022-12-31T14:56:32.821Z,100404.59
2022-12-31T14:58:58.889Z,100404.06
2022-12-31T15:01:26.050Z,100405.97
2022-12-31T15:03:50.555Z,100407.91
2022-12-31T15:06:41.448Z,100401.50
2022-12-31T15:09:19.065Z,100412.69
2022-12-31T15:12:03.589Z,100413.19
2022-12-31T15:15:02.265Z,100413.91
2022-12-31T15:17:40.841Z,100407.47
2022-12-31T15:20:27.519Z,100406.09
2022-12-31T15:22:52.432Z,100400.72
2022-12-31T15:25:40.031Z,100411.59
2022-12-31T15:28:08.026Z,100414.31
2022-12-31T15:30:41.247Z,100415.66
2022-12-31T15:33:08.851Z,100415.47
2022-12-31T15:35:44.907Z,100405.81
2022-12-31T15:38:32.199Z,100409.72
2022-12-31T15:40:57.377Z,100405.50
2022-12-31T15:43:35.051Z,100406.03
2022-12-31T15:45:59.794Z,100414.31
2022-12-31T15:48:28.806Z,100410.63
2022-12-31T15:50:57.887Z,100405.19
2022-12-31T15:53:30.856Z,100412.47
2022-12-31T15:55:57.859Z,100401.78
2022-12-31T15:58:25.350Z,100404.34
2022-12-31T16:01:04.024Z,100416.38
2022-12-31T16:03:30.454Z,100422.66
2022-12-31T16:05:56.774Z,100416.72
2022-12-31T16:08:23.189Z,100426.19
2022-12-31T16:10:46.783Z,100425.00
2022-12-31T16:13:21.753Z,100431.75
2022-12-31T16:15:45.448Z,100424.66
2022-12-31T16:18:18.945Z,100431.94
2022-12-31T16:20:48.647Z,100442.44
2022-12-31T16:23:22.361Z,100441.94
2022-12-31T16:25:47.140Z,100437.03
2022-12-31T16:28:19.624Z,100443.78
2022-12-31T16:30:43.278Z,100438.34
2022-12-31T16:33:12.707Z,100447.84
2022-12-31T16:35:38.193Z,100449.88
2022-12-31T16:38:14.773Z,100449.88
2022-12-31T16:40:38.387Z,100443.91
2022-12-31T16:43:02.186Z,100440.31
2022-12-31T16:45:35.571Z,100448.84
2022-12-31T16:48:12.800Z,100441.72
2022-12-31T16:50:40.181Z,100455.28
2022-12-31T16:53:07.363Z,100457.81
2022-12-31T16:55:32.327Z,100449.66
2022-12-31T16:58:01.237Z,100450.69
2022-12-31T17:00:27.279Z,100451.56
2022-12-31T17:03:03.848Z,100457.81
2022-12-31T17:05:28.922Z,100460.34
2022-12-31T17:07:53.065Z,100461.72
2022-12-31T17:10:25.349Z,100452.59
2022-12-31T17:15:43.209Z,100450.69
2022-12-31T17:18:09.338Z,100449.38
2022-12-31T17:20:35.119Z,100445.13
2022-12-31T17:23:01.567Z,100455.28
2022-12-31T17:25:27.542Z,100460.53
2022-12-31T17:27:58.311Z,100451.38
2022-12-31T17:30:35.673Z,100460.03
2022-12-31T17:33:02.692Z,100456.31
2022-12-31T17:35:33.325Z,100455.44
2022-12-31T17:37:56.866Z,100462.56
2022-12-31T17:40:54.425Z,100459.00
2022-12-31T17:43:20.486Z,100466.16
2022-12-31T17:45:46.050Z,100468.19
2022-12-31T17:48:13.680Z,100466.47
2022-12-31T17:50:48.775Z,100470.56
2022-12-31T17:53:13.915Z,100465.97
2022-12-31T17:55:37.482Z,100454.78
2022-12-31T17:58:06.401Z,100465.94
2022-12-31T18:00:29.956Z,100471.06
2022-12-31T18:02:53.992Z,100481.41
2022-12-31T18:05:19.692Z,100475.44
2022-12-31T18:07:44.687Z,100470.19
2022-12-31T18:10:09.133Z,100474.25
2022-12-31T18:12:32.834Z,100475.28
2022-12-31T18:14:56.433Z,100482.25
2022-12-31T18:17:20.011Z,100480.19
2022-12-31T18:20:04.171Z,100479.72
2022-12-31T18:22:27.426Z,100484.13
2022-12-31T18:24:55.672Z,100484.44
2022-12-31T18:27:20.695Z,100488.53
2022-12-31T18:29:44.307Z,100501.03
2022-12-31T18:32:08.141Z,100505.13
2022-12-31T18:34:31.638Z,100495.81
2022-12-31T18:36:55.197Z,100501.22
2022-12-31T18:39:18.780Z,100516.69
2022-12-31T18:41:48.967Z,100505.31
2022-12-31T18:44:14.521Z,100503.94
2022-12-31T18:46:38.065Z,100503.44
2022-12-31T18:49:01.665Z,100490.94
2022-12-31T18:51:31.755Z,100492.59
2022-12-31T18:53:55.817Z,100492.59
2022-12-31T18:56:22.112Z,100499.22
2022-12-31T18:58:47.832Z,100499.22
2022-12-31T19:01:31.373Z,100495.31
2022-12-31T19:03:56.767Z,100490.44
2022-12-31T19:06:20.299Z,100494.97
2022-12-31T19:08:43.920Z,100497.50
2022-12-31T19:11:07.537Z,100496.69
2022-12-31T19:13:32.340Z,100501.59
2022-12-31T19:15:58.697Z,100501.41
2022-12-31T19:18:22.546Z,100504.63
2022-12-31T19:20:46.278Z,100498.38
2022-12-31T19:23:17.828Z,100500.09
2022-12-31T19:25:41.469Z,100497.69
2022-12-31T19:28:07.278Z,100491.59
2022-12-31T19:30:34.328Z,100488.38
2022-12-31T19:32:59.588Z,100488.88
2022-12-31T19:35:24.661Z,100485.84
2022-12-31T19:37:50.340Z,100479.41
2022-12-31T19:40:17.695Z,100490.44
2022-12-31T19:42:41.298Z,100486.19
2022-12-31T19:45:05.724Z,100487.53
2022-12-31T19:47:29.244Z,100490.75
2022-12-31T19:49:54.222Z,100486.16
2022-12-31T19:52:17.748Z,100489.72
2022-12-31T19:54:41.467Z,100483.81
2022-12-31T19:57:05.156Z,100478.38
2022-12-31T19:59:28.841Z,100489.41
2022-12-31T20:01:52.457Z,100489.91
2022-12-31T20:04:16.152Z,100493.97
2022-12-31T20:06:41.050Z,100494.63
2022-12-31T20:09:05.846Z,100485.00
2022-12-31T20:11:29.411Z,100488.91
2022-12-31T20:13:54.306Z,100492.94
2022-12-31T20:16:21.072Z,100496.50
2022-12-31T20:18:46.409Z,100504.13
2022-12-31T20:21:12.690Z,100499.88
2022-12-31T20:23:37.710Z,100503.44
2022-12-31T20:26:02.341Z,100493.28
2022-12-31T20:28:26.032Z,100497.38
2022-12-31T20:30:49.661Z,100500.72
2022-12-31T20:33:18.909Z,100492.44
2022-12-31T20:35:42.896Z,100491.94
2022-12-31T20:38:06.440Z,100494.66
2022-12-31T20:40:31.358Z,100495.97
2022-12-31T20:42:54.989Z,100489.91
2022-12-31T20:45:18.813Z,100497.19
2022-12-31T20:47:42.345Z,100489.91
2022-12-31T20:50:11.969Z,100479.75
2022-12-31T20:52:36.128Z,100486.53
2022-12-31T20:54:59.697Z,100503.78
2022-12-31T20:57:27.670Z,100495.16
2022-12-31T20:59:55.328Z,100500.91
2022-12-31T21:02:21.350Z,100504.31
2022-12-31T21:04:46.914Z,100500.41
2022-12-31T21:07:10.639Z,100501.41
2022-12-31T21:09:34.214Z,100499.06
2022-12-31T21:12:15.214Z,100500.72
2022-12-31T21:14:44.680Z,100503.94
2022-12-31T21:17:08.558Z,100500.09
2022-12-31T21:19:32.104Z,100503.13
2022-12-31T21:21:55.638Z,100501.78
2022-12-31T21:24:23.759Z,100491.25
2022-12-31T21:26:47.676Z,100495.50
2022-12-31T21:29:11.241Z,100496.00
2022-12-31T21:31:36.248Z,100488.38
2022-12-31T21:33:59.847Z,100496.31
2022-12-31T21:36:23.395Z,100499.03
2022-12-31T21:38:46.978Z,100508.69
2022-12-31T21:41:34.086Z,100508.53
2022-12-31T21:43:58.720Z,100518.19
2022-12-31T21:46:22.285Z,100508.88
2022-12-31T21:48:47.273Z,100524.81
2022-12-31T21:51:13.190Z,100519.56
2022-12-31T21:53:37.804Z,100512.44
2022-12-31T21:56:09.291Z,100517.69
2022-12-31T21:58:33.319Z,100511.25
2022-12-31T22:01:14.684Z,100504.81
2022-12-31T22:03:39.290Z,100486.16
2022-12-31T22:06:10.173Z,100505.63
2022-12-31T22:08:33.922Z,100515.47
2022-12-31T22:10:57.719Z,100518.38
2022-12-31T22:13:21.382Z,100511.41
2022-12-31T22:15:46.202Z,100520.56
2022-12-31T22:18:09.835Z,100525.81
2022-12-31T22:20:33.367Z,100530.91
2022-12-31T22:22:58.445Z,100545.81
2022-12-31T22:25:22.320Z,100535.81
2022-12-31T22:28:11.474Z,100538.38
2022-12-31T22:30:29.825Z,100536.66
2022-12-31T22:32:53.365Z,100553.44
2022-12-31T22:35:17.177Z,100550.91
2022-12-31T22:37:59.021Z,100555.66
2022-12-31T22:40:25.658Z,100561.09
2022-12-31T22:42:49.211Z,100572.25
2022-12-31T22:45:13.229Z,100569.72
2022-12-31T22:47:36.815Z,100577.34
2022-12-31T22:50:00.603Z,100578.19
2022-12-31T22:52:24.121Z,100573.13
2022-12-31T22:54:47.736Z,100566.69
2022-12-31T22:57:19.647Z,100570.22
2022-12-31T22:59:43.666Z,100570.56
2022-12-31T23:02:07.280Z,100553.28
2022-12-31T23:04:31.130Z,100553.78
2022-12-31T23:06:54.754Z,100566.84
2022-12-31T23:09:36.551Z,100562.44
2022-12-31T23:12:02.981Z,100564.28
2022-12-31T23:14:45.375Z,100563.47
2022-12-31T23:17:29.820Z,100570.91
2022-12-31T23:20:12.547Z,100576.16
2022-12-31T23:22:53.840Z,100580.25
2022-12-31T23:25:17.778Z,100569.88
2022-12-31T23:27:41.304Z,100563.47
2022-12-31T23:30:07.989Z,100573.28
2022-12-31T23:32:31.499Z,100581.75
2022-12-31T23:34:55.722Z,100571.41
2022-12-31T23:37:19.247Z,100563.78
2022-12-31T23:39:43.569Z,100564.81
2022-12-31T23:42:07.339Z,100577.69
2022-12-31T23:44:30.927Z,100568.53
2022-12-31T23:46:56.628Z,100584.13
2022-12-31T23:49:20.382Z,100579.53
2022-12-31T23:51:43.886Z,100591.75
2022-12-31T23:54:08.373Z,100591.41
2022-12-31T23:56:31.981Z,100593.44
2022-12-31T23:58:56.590Z,100604.94
